createdAt,value
2022-10-24T00:00:20.654Z,98.28
2022-10-24T00:02:47.067Z,98.20
2022-10-24T00:05:14.470Z,98.08
2022-10-24T00:07:41.729Z,98.03
2022-10-24T00:10:11.891Z,98.01
2022-10-24T00:12:38.590Z,97.86
2022-10-24T00:15:06.291Z,97.72
2022-10-24T00:17:33.105Z,97.31
2022-10-24T00:20:00.635Z,97.00
2022-10-24T00:22:27.911Z,96.95
2022-10-24T00:24:54.341Z,96.63
2022-10-24T00:27:20.793Z,96.38
2022-10-24T00:29:47.177Z,96.22
2022-10-24T00:32:14.401Z,95.79
2022-10-24T00:34:41.432Z,95.47
2022-10-24T00:37:07.934Z,95.29
2022-10-24T00:39:34.393Z,95.22
2022-10-24T00:42:00.773Z,94.90
2022-10-24T00:44:31.296Z,95.29
2022-10-24T00:47:06.479Z,95.13
2022-10-24T00:50:11.473Z,95.22
2022-10-24T00:52:42.753Z,95.61
2022-10-24T00:55:10.934Z,95.55
2022-10-24T00:57:45.869Z,95.74
2022-10-24T01:00:17.704Z,95.75
2022-10-24T01:02:45.084Z,95.86
2022-10-24T01:05:13.468Z,95.65
2022-10-24T01:08:05.813Z,95.26
2022-10-24T01:10:58.164Z,94.63
2022-10-24T01:13:49.452Z,94.27
2022-10-24T01:16:23.724Z,93.77
2022-10-24T01:18:56.864Z,93.46
2022-10-24T01:21:40.402Z,93.18
2022-10-24T01:24:25.940Z,92.88
2022-10-24T01:27:39.100Z,92.61
2022-10-24T01:30:07.232Z,92.51
2022-10-24T01:32:39.229Z,92.13
2022-10-24T01:35:22.749Z,91.89
2022-10-24T01:37:57.914Z,91.64
2022-10-24T01:40:56.784Z,91.26
2022-10-24T01:43:28.238Z,91.18
2022-10-24T01:46:02.053Z,90.83
2022-10-24T01:48:32.956Z,91.09
2022-10-24T01:51:02.179Z,90.62
2022-10-24T01:53:30.833Z,90.90
2022-10-24T01:55:58.192Z,90.70
2022-10-24T01:58:24.752Z,90.52
2022-10-24T02:00:53.624Z,90.56
2022-10-24T02:03:44.508Z,90.45
2022-10-24T02:06:15.508Z,90.38
2022-10-24T02:08:46.354Z,90.80
2022-10-24T02:11:13.112Z,90.74
2022-10-24T02:13:44.965Z,90.80
2022-10-24T02:16:15.211Z,91.11
2022-10-24T02:18:41.894Z,91.49
2022-10-24T02:21:15.484Z,91.71
2022-10-24T02:23:52.585Z,92.10
2022-10-24T02:26:31.022Z,92.06
2022-10-24T02:29:03.077Z,92.11
2022-10-24T02:31:35.883Z,92.40
2022-10-24T02:34:05.764Z,92.20
2022-10-24T02:36:34.465Z,92.12
2022-10-24T02:39:03.795Z,92.38
2022-10-24T02:41:33.352Z,92.39
2022-10-24T02:44:02.162Z,92.35
2022-10-24T02:46:30.486Z,91.87
2022-10-24T02:49:00.456Z,92.23
2022-10-24T02:51:31.052Z,91.80
2022-10-24T02:53:59.832Z,91.77
2022-10-24T02:56:26.884Z,91.08
2022-10-24T02:58:53.278Z,90.68
2022-10-24T03:01:19.803Z,90.58
2022-10-24T03:03:46.638Z,90.60
2022-10-24T03:06:13.149Z,90.52
2022-10-24T03:08:39.585Z,90.40
2022-10-24T03:11:06.209Z,89.94
2022-10-24T03:13:32.919Z,89.20
2022-10-24T03:15:59.320Z,88.67
2022-10-24T03:18:25.841Z,88.11
2022-10-24T03:20:52.314Z,87.75
2022-10-24T03:23:19.308Z,87.90
2022-10-24T03:25:46.043Z,87.35
2022-10-24T03:28:12.399Z,87.39
2022-10-24T03:30:39.113Z,86.88
2022-10-24T03:33:05.539Z,86.75
2022-10-24T03:35:31.928Z,86.92
2022-10-24T03:37:58.359Z,86.81
2022-10-24T03:40:24.708Z,86.74
2022-10-24T03:42:51.088Z,86.58
2022-10-24T03:45:17.592Z,86.63
2022-10-24T03:47:43.964Z,86.70
2022-10-24T03:50:10.443Z,86.94
2022-10-24T03:52:36.869Z,87.23
2022-10-24T03:55:03.670Z,86.94
2022-10-24T03:57:30.214Z,86.94
2022-10-24T03:59:56.589Z,87.04
2022-10-24T04:02:22.970Z,87.03
2022-10-24T04:04:49.369Z,87.19
2022-10-24T04:07:15.861Z,86.87
2022-10-24T04:09:42.232Z,86.77
2022-10-24T04:12:08.670Z,86.28
2022-10-24T04:14:35.092Z,85.72
2022-10-24T04:17:01.637Z,85.36
2022-10-24T04:19:28.025Z,85.26
2022-10-24T04:21:54.397Z,84.72
2022-10-24T04:24:20.977Z,84.15
2022-10-24T04:26:47.387Z,83.14
2022-10-24T04:29:13.944Z,83.11
2022-10-24T04:31:40.333Z,83.09
2022-10-24T04:34:06.877Z,82.94
2022-10-24T04:36:34.561Z,83.20
2022-10-24T04:41:32.642Z,83.67
2022-10-24T04:43:59.024Z,83.99
2022-10-24T04:46:25.414Z,84.43
2022-10-24T04:48:53.397Z,84.57
2022-10-24T04:51:22.295Z,84.96
2022-10-24T04:53:49.562Z,85.09
2022-10-24T04:56:15.938Z,84.73
2022-10-24T04:58:42.398Z,84.70
2022-10-24T05:01:08.787Z,84.15
2022-10-24T05:03:35.332Z,83.79
2022-10-24T05:06:01.752Z,83.30
2022-10-24T05:08:28.495Z,83.24
2022-10-24T05:10:54.858Z,83.20
2022-10-24T05:13:21.253Z,82.63
2022-10-24T05:15:47.655Z,82.61
2022-10-24T05:18:14.374Z,81.86
2022-10-24T05:23:12.303Z,80.27
2022-10-24T05:25:39.002Z,80.14
2022-10-24T05:28:05.592Z,79.92
2022-10-24T05:30:32.241Z,80.01
2022-10-24T05:32:59.632Z,79.51
2022-10-24T05:35:26.015Z,79.42
2022-10-24T05:37:52.373Z,78.83
2022-10-24T05:40:18.756Z,78.64
2022-10-24T05:42:45.483Z,79.16
2022-10-24T05:45:12.112Z,79.40
2022-10-24T05:47:38.501Z,79.23
2022-10-24T05:50:06.366Z,79.20
2022-10-24T05:52:36.180Z,79.38
2022-10-24T05:55:08.181Z,78.98
2022-10-24T05:57:38.892Z,78.99
2022-10-24T06:00:07.332Z,78.61
2022-10-24T06:02:38.631Z,78.09
2022-10-24T06:05:05.866Z,78.18
2022-10-24T06:07:32.329Z,77.71
2022-10-24T06:09:59.723Z,77.53
2022-10-24T06:12:26.215Z,77.36
2022-10-24T06:14:56.848Z,77.60
2022-10-24T06:17:23.402Z,77.66
2022-10-24T06:19:50.816Z,77.48
2022-10-24T06:22:18.431Z,77.21
2022-10-24T06:24:45.109Z,77.44
2022-10-24T06:27:11.514Z,77.57
2022-10-24T06:29:37.995Z,77.90
2022-10-24T06:32:04.453Z,77.53
2022-10-24T06:34:30.959Z,77.51
2022-10-24T06:36:57.382Z,77.57
2022-10-24T06:39:24.451Z,77.48
2022-10-24T06:41:50.839Z,77.51
2022-10-24T06:44:17.554Z,77.67
2022-10-24T06:46:44.056Z,77.50
2022-10-24T06:49:11.769Z,77.84
2022-10-24T06:51:38.231Z,77.80
2022-10-24T06:54:04.697Z,77.96
2022-10-24T06:56:31.182Z,77.95
2022-10-24T06:58:57.673Z,77.74
2022-10-24T07:01:27.068Z,77.16
2022-10-24T07:03:54.400Z,77.38
2022-10-24T07:06:24.418Z,77.50
2022-10-24T07:08:52.942Z,77.07
2022-10-24T07:11:19.910Z,76.58
2022-10-24T07:13:47.027Z,76.88
2022-10-24T07:16:13.467Z,77.18
2022-10-24T07:18:40.150Z,77.53
2022-10-24T07:21:19.656Z,77.01
2022-10-24T07:23:46.238Z,76.92
2022-10-24T07:26:16.135Z,77.29
2022-10-24T07:28:46.365Z,77.54
2022-10-24T07:31:16.778Z,77.32
2022-10-24T07:33:43.318Z,77.32
2022-10-24T07:36:10.036Z,77.31
2022-10-24T07:38:37.200Z,77.03
2022-10-24T07:41:06.581Z,77.24
2022-10-24T07:43:33.475Z,77.55
2022-10-24T07:48:31.273Z,77.51
2022-10-24T07:50:57.767Z,77.29
2022-10-24T07:53:27.050Z,76.68
2022-10-24T07:55:54.610Z,77.66
2022-10-24T07:58:20.989Z,76.98
2022-10-24T08:00:47.383Z,76.71
2022-10-24T08:03:13.863Z,77.00
2022-10-24T08:05:41.087Z,77.18
2022-10-24T08:10:54.103Z,76.79
2022-10-24T08:13:20.545Z,76.47
2022-10-24T08:15:46.952Z,76.09
2022-10-24T08:18:13.420Z,75.67
2022-10-24T08:20:39.833Z,76.47
2022-10-24T08:23:06.405Z,76.10
2022-10-24T08:25:33.021Z,76.15
2022-10-24T08:28:00.253Z,76.36
2022-10-24T08:30:28.232Z,75.89
2022-10-24T08:32:54.764Z,76.44
2022-10-24T08:35:21.896Z,75.89
2022-10-24T08:37:48.392Z,75.77
2022-10-24T08:40:19.232Z,75.60
2022-10-24T08:42:47.588Z,75.29
2022-10-24T08:45:29.318Z,74.60
2022-10-24T08:48:08.047Z,73.92
2022-10-24T08:50:36.205Z,74.18
2022-10-24T08:53:09.385Z,73.60
2022-10-24T08:55:49.480Z,73.05
2022-10-24T08:58:22.770Z,73.30
2022-10-24T09:00:52.263Z,73.07
2022-10-24T09:03:54.589Z,72.92
2022-10-24T09:06:23.164Z,73.41
2022-10-24T09:08:53.643Z,73.29
2022-10-24T09:11:30.765Z,72.97
2022-10-24T09:14:00.714Z,72.26
2022-10-24T09:16:27.604Z,72.26
2022-10-24T09:18:56.644Z,72.43
2022-10-24T09:21:23.885Z,71.52
2022-10-24T09:23:51.774Z,72.45
2022-10-24T09:26:30.906Z,71.87
2022-10-24T09:28:57.766Z,72.79
2022-10-24T09:31:26.844Z,73.79
2022-10-24T09:33:53.714Z,73.06
2022-10-24T09:36:24.849Z,72.81
2022-10-24T09:38:51.619Z,72.57
2022-10-24T09:41:27.513Z,72.91
2022-10-24T09:43:56.488Z,72.20
2022-10-24T09:46:27.263Z,72.39
2022-10-24T09:49:06.796Z,72.76
2022-10-24T09:51:37.158Z,73.29
2022-10-24T09:54:26.837Z,72.15
2022-10-24T09:56:57.407Z,71.74
2022-10-24T09:59:29.507Z,71.74
2022-10-24T10:02:11.180Z,72.33
2022-10-24T10:04:38.533Z,71.99
2022-10-24T10:07:20.237Z,70.89
2022-10-24T10:09:56.763Z,71.33
2022-10-24T10:12:32.819Z,70.28
2022-10-24T10:15:02.717Z,69.93
2022-10-24T10:17:32.612Z,70.08
2022-10-24T10:19:59.732Z,69.39
2022-10-24T10:22:29.462Z,67.65
2022-10-24T10:24:56.490Z,67.28
2022-10-24T10:27:36.115Z,67.60
2022-10-24T10:30:11.458Z,67.02
2022-10-24T10:32:56.675Z,67.25
2022-10-24T10:35:39.156Z,68.01
2022-10-24T10:38:36.822Z,66.80
2022-10-24T10:41:33.788Z,67.10
2022-10-24T10:44:13.108Z,66.65
2022-10-24T10:47:23.900Z,65.75
2022-10-24T10:49:58.158Z,65.38
2022-10-24T10:52:33.536Z,64.66
2022-10-24T10:55:18.046Z,65.55
2022-10-24T10:57:49.614Z,65.05
2022-10-24T11:00:39.214Z,65.37
2022-10-24T11:03:42.386Z,65.17
2022-10-24T11:06:08.679Z,65.30
2022-10-24T11:08:53.810Z,66.71
2022-10-24T11:11:43.218Z,65.90
2022-10-24T11:14:30.472Z,65.45
2022-10-24T11:17:02.904Z,65.91
2022-10-24T11:19:43.727Z,66.16
2022-10-24T11:22:20.206Z,66.35
2022-10-24T11:24:55.801Z,66.73
2022-10-24T11:27:31.449Z,66.75
2022-10-24T11:30:08.787Z,67.19
2022-10-24T11:32:50.611Z,66.05
2022-10-24T11:35:25.283Z,66.84
2022-10-24T11:38:13.842Z,67.56
2022-10-24T11:40:44.096Z,66.99
2022-10-24T11:43:41.067Z,67.42
2022-10-24T11:46:20.598Z,67.24
2022-10-24T11:48:57.284Z,67.51
2022-10-24T11:51:49.896Z,66.12
2022-10-24T11:54:23.751Z,66.23
2022-10-24T11:56:54.795Z,67.24
2022-10-24T11:59:25.743Z,68.34
2022-10-24T12:01:54.819Z,68.31
2022-10-24T12:04:24.129Z,68.00
2022-10-24T12:07:21.717Z,68.19
2022-10-24T12:10:08.766Z,68.36
2022-10-24T12:13:14.558Z,68.99
2022-10-24T12:16:03.116Z,68.90
2022-10-24T12:18:34.256Z,68.95
2022-10-24T12:21:07.962Z,69.51
2022-10-24T12:23:34.606Z,68.90
2022-10-24T12:26:18.435Z,68.44
2022-10-24T12:29:02.746Z,68.95
2022-10-24T12:31:38.644Z,69.58
2022-10-24T12:34:18.811Z,69.34
2022-10-24T12:37:03.969Z,69.32
2022-10-24T12:39:31.262Z,68.90
2022-10-24T12:41:59.366Z,68.94
2022-10-24T12:44:37.672Z,69.31
2022-10-24T12:47:28.432Z,69.37
2022-10-24T12:49:55.808Z,69.27
2022-10-24T12:52:31.361Z,69.45
2022-10-24T12:54:58.905Z,69.38
2022-10-24T12:57:28.486Z,68.90
2022-10-24T13:00:00.213Z,69.49
2022-10-24T13:02:38.476Z,68.61
2022-10-24T13:05:10.888Z,68.34
2022-10-24T13:07:59.614Z,68.14
2022-10-24T13:10:47.890Z,68.56
2022-10-24T13:13:59.277Z,68.45
2022-10-24T13:16:42.646Z,68.26
2022-10-24T13:19:17.021Z,68.13
2022-10-24T13:21:47.661Z,67.74
2022-10-24T13:24:17.096Z,67.71
2022-10-24T13:27:08.038Z,67.67
2022-10-24T13:29:39.604Z,67.31
2022-10-24T13:32:05.920Z,67.11
2022-10-24T13:34:50.753Z,67.64
2022-10-24T13:37:25.389Z,66.85
2022-10-24T13:40:03.419Z,67.23
2022-10-24T13:42:40.821Z,66.94
2022-10-24T13:45:32.888Z,69.03
2022-10-24T13:48:20.456Z,69.13
2022-10-24T13:51:08.247Z,69.44
2022-10-24T13:53:46.054Z,69.71
2022-10-24T13:56:13.492Z,71.23
2022-10-24T13:58:44.303Z,73.61
2022-10-24T14:01:16.761Z,75.91
2022-10-24T14:03:44.380Z,78.52
2022-10-24T14:06:11.604Z,80.86
2022-10-24T14:08:48.157Z,82.65
2022-10-24T14:11:23.732Z,83.69
2022-10-24T14:13:56.292Z,85.81
2022-10-24T14:16:28.331Z,89.90
2022-10-24T14:19:28.464Z,93.70
2022-10-24T14:21:57.734Z,94.84
2022-10-24T14:24:24.269Z,95.39
2022-10-24T14:26:53.949Z,96.85
2022-10-24T14:29:27.932Z,98.06
2022-10-24T14:32:10.136Z,99.22
2022-10-24T14:34:37.507Z,100.00
2022-10-24T14:37:16.736Z,100.00
2022-10-24T14:39:43.753Z,100.00
2022-10-24T14:42:16.446Z,100.00
2022-10-24T14:44:46.245Z,100.00
2022-10-24T14:47:21.755Z,100.00
2022-10-24T14:49:48.811Z,100.00
2022-10-24T14:52:23.875Z,100.00
2022-10-24T14:55:02.401Z,100.00
2022-10-24T14:57:30.968Z,100.00
2022-10-24T15:00:02.586Z,100.00
2022-10-24T15:02:32.868Z,100.00
2022-10-24T15:05:22.725Z,100.00
2022-10-24T15:08:28.155Z,100.00
2022-10-24T15:11:28.692Z,100.00
2022-10-24T15:14:06.253Z,100.00
2022-10-24T15:16:39.328Z,100.00
2022-10-24T15:19:14.203Z,100.00
2022-10-24T15:21:42.976Z,100.00
2022-10-24T15:24:23.641Z,100.00
2022-10-24T15:26:51.027Z,100.00
2022-10-24T15:29:21.393Z,100.00
2022-10-24T15:31:50.420Z,100.00
2022-10-24T15:34:23.753Z,100.00
2022-10-24T15:36:52.061Z,100.00
2022-10-24T15:39:24.513Z,100.00
2022-10-24T15:41:51.356Z,100.00
2022-10-24T15:44:20.596Z,100.00
2022-10-24T15:46:48.121Z,100.00
2022-10-24T15:49:15.074Z,100.00
2022-10-24T15:51:46.069Z,100.00
2022-10-24T15:54:16.909Z,100.00
2022-10-24T15:56:43.380Z,100.00
2022-10-24T15:59:09.791Z,100.00
2022-10-24T16:01:42.471Z,100.00
2022-10-24T16:04:09.624Z,100.00
2022-10-24T16:06:36.703Z,100.00
2022-10-24T16:09:04.341Z,100.00
2022-10-24T16:11:31.991Z,100.00
2022-10-24T16:13:59.264Z,100.00
2022-10-24T16:16:25.657Z,100.00
2022-10-24T16:18:52.152Z,100.00
2022-10-24T16:21:21.171Z,100.00
2022-10-24T16:23:48.521Z,100.00
2022-10-24T16:26:16.011Z,100.00
2022-10-24T16:28:42.580Z,100.00
2022-10-24T16:31:09.422Z,100.00
2022-10-24T16:33:35.852Z,100.00
2022-10-24T16:36:02.216Z,100.00
2022-10-24T16:38:28.760Z,100.00
2022-10-24T16:40:55.165Z,100.00
2022-10-24T16:43:21.549Z,100.00
2022-10-24T16:46:00.091Z,100.00
2022-10-24T16:48:27.507Z,100.00
2022-10-24T16:50:54.355Z,100.00
2022-10-24T16:53:21.990Z,100.00
2022-10-24T16:55:51.108Z,100.00
2022-10-24T16:58:18.348Z,100.00
2022-10-24T17:00:46.013Z,100.00
2022-10-24T17:03:12.787Z,100.00
2022-10-24T17:05:39.926Z,100.00
2022-10-24T17:08:06.397Z,100.00
2022-10-24T17:10:32.800Z,100.00
2022-10-24T17:13:00.894Z,100.00
2022-10-24T17:15:27.478Z,100.00
2022-10-24T17:17:53.829Z,100.00
2022-10-24T17:20:20.386Z,100.00
2022-10-24T17:22:47.073Z,100.00
2022-10-24T17:25:25.529Z,100.00
2022-10-24T17:27:52.259Z,100.00
2022-10-24T17:30:28.174Z,100.00
2022-10-24T17:32:54.623Z,100.00
2022-10-24T17:35:23.431Z,100.00
2022-10-24T17:38:02.050Z,100.00
2022-10-24T17:40:43.948Z,100.00
2022-10-24T17:43:18.429Z,100.00
2022-10-24T17:45:45.264Z,100.00
2022-10-24T17:48:11.751Z,100.00
2022-10-24T17:50:38.504Z,100.00
2022-10-24T17:53:04.885Z,100.00
2022-10-24T17:55:45.633Z,100.00
2022-10-24T17:58:13.429Z,100.00
2022-10-24T18:00:40.261Z,100.00
2022-10-24T18:03:08.347Z,100.00
2022-10-24T18:05:37.529Z,100.00
2022-10-24T18:08:05.415Z,100.00
2022-10-24T18:10:32.442Z,100.00
2022-10-24T18:15:30.224Z,100.00
2022-10-24T18:17:56.719Z,100.00
2022-10-24T18:20:23.178Z,100.00
2022-10-24T18:22:49.769Z,100.00
2022-10-24T18:25:20.315Z,100.00
2022-10-24T18:27:50.115Z,100.00
2022-10-24T18:30:17.017Z,100.00
2022-10-24T18:32:44.192Z,100.00
2022-10-24T18:35:11.380Z,100.00
2022-10-24T18:37:37.934Z,100.00
2022-10-24T18:40:06.284Z,100.00
2022-10-24T18:42:45.468Z,100.00
2022-10-24T18:45:18.583Z,100.00
2022-10-24T18:47:45.556Z,100.00
2022-10-24T18:50:18.061Z,100.00
2022-10-24T18:53:01.172Z,100.00
2022-10-24T18:55:30.525Z,100.00
2022-10-24T18:57:57.545Z,100.00
2022-10-24T19:00:27.175Z,100.00
2022-10-24T19:03:11.229Z,100.00
2022-10-24T19:05:58.045Z,100.00
2022-10-24T19:08:27.249Z,100.00
2022-10-24T19:10:56.552Z,100.00
2022-10-24T19:13:25.519Z,100.00
2022-10-24T19:16:05.685Z,100.00
2022-10-24T19:18:36.917Z,100.00
2022-10-24T19:21:06.769Z,100.00
2022-10-24T19:23:33.197Z,100.00
2022-10-24T19:25:59.618Z,100.00
2022-10-24T19:28:26.039Z,100.00
2022-10-24T19:30:53.829Z,100.00
2022-10-24T19:33:22.829Z,100.00
2022-10-24T19:35:49.252Z,100.00
2022-10-24T19:38:17.627Z,100.00
2022-10-24T19:40:49.745Z,100.00
2022-10-24T19:43:16.144Z,100.00
2022-10-24T19:45:50.612Z,100.00
2022-10-24T19:48:23.154Z,100.00
2022-10-24T19:50:49.961Z,100.00
2022-10-24T19:53:16.391Z,100.00
2022-10-24T19:55:43.215Z,100.00
2022-10-24T19:58:11.561Z,100.00
2022-10-24T20:00:38.922Z,100.00
2022-10-24T20:03:05.626Z,100.00
2022-10-24T20:05:32.819Z,100.00
2022-10-24T20:07:59.272Z,100.00
2022-10-24T20:10:25.961Z,100.00
2022-10-24T20:12:53.567Z,100.00
2022-10-24T20:15:19.960Z,100.00
2022-10-24T20:17:46.508Z,100.00
2022-10-24T20:20:13.414Z,100.00
2022-10-24T20:22:40.403Z,100.00
2022-10-24T20:25:07.269Z,100.00
2022-10-24T20:27:33.838Z,100.00
2022-10-24T20:30:00.441Z,100.00
2022-10-24T20:32:26.805Z,100.00
2022-10-24T20:34:53.163Z,100.00
2022-10-24T20:37:19.524Z,100.00
2022-10-24T20:39:45.905Z,100.00
2022-10-24T20:42:12.259Z,100.00
2022-10-24T20:44:38.668Z,100.00
2022-10-24T20:47:05.021Z,100.00
2022-10-24T20:49:31.989Z,100.00
2022-10-24T20:51:58.528Z,100.00
2022-10-24T20:54:24.956Z,100.00
2022-10-24T20:56:51.533Z,100.00
2022-10-24T20:59:17.981Z,100.00
2022-10-24T21:01:44.638Z,100.00
2022-10-24T21:04:11.136Z,100.00
2022-10-24T21:06:37.765Z,100.00
2022-10-24T21:09:06.333Z,100.00
2022-10-24T21:11:34.125Z,100.00
2022-10-24T21:14:03.665Z,100.00
2022-10-24T21:16:30.591Z,100.00
2022-10-24T21:18:57.369Z,100.00
2022-10-24T21:21:25.000Z,100.00
2022-10-24T21:24:00.841Z,100.00
2022-10-24T21:26:30.451Z,100.00
2022-10-24T21:29:08.459Z,100.00
2022-10-24T21:31:41.158Z,100.00
2022-10-24T21:34:07.553Z,100.00
2022-10-24T21:36:33.916Z,100.00
2022-10-24T21:39:00.341Z,100.00
2022-10-24T21:41:27.838Z,100.00
2022-10-24T21:43:54.765Z,100.00
2022-10-24T21:46:26.373Z,100.00
2022-10-24T21:48:54.642Z,100.00
2022-10-24T21:51:27.060Z,100.00
2022-10-24T21:53:56.552Z,100.00
2022-10-24T21:56:27.909Z,100.00
2022-10-24T21:58:59.705Z,100.00
2022-10-24T22:01:29.955Z,100.00
2022-10-24T22:03:58.340Z,100.00
2022-10-24T22:06:26.099Z,100.00
2022-10-24T22:08:52.514Z,100.00
2022-10-24T22:11:21.477Z,100.00
2022-10-24T22:13:49.064Z,100.00
2022-10-24T22:16:18.169Z,100.00
2022-10-24T22:18:44.577Z,100.00
2022-10-24T22:21:31.153Z,100.00
2022-10-24T22:26:38.987Z,100.00
2022-10-24T22:29:06.998Z,100.00
2022-10-24T22:31:34.506Z,100.00
2022-10-24T22:34:01.384Z,100.00
2022-10-24T22:36:58.946Z,100.00
2022-10-24T22:39:25.992Z,100.00
2022-10-24T22:41:53.243Z,100.00
2022-10-24T22:44:21.078Z,100.00
2022-10-24T22:47:08.968Z,100.00
2022-10-24T22:50:00.146Z,100.00
2022-10-24T22:52:27.032Z,100.00
2022-10-24T22:54:53.696Z,100.00
2022-10-24T22:57:20.591Z,100.00
2022-10-24T22:59:47.257Z,100.00
2022-10-24T23:02:16.463Z,100.00
2022-10-24T23:05:29.041Z,100.00
2022-10-24T23:07:57.755Z,100.00
2022-10-24T23:10:25.795Z,100.00
2022-10-24T23:12:52.660Z,100.00
2022-10-24T23:15:21.083Z,100.00
2022-10-24T23:17:49.003Z,100.00
2022-10-24T23:20:21.379Z,100.00
2022-10-24T23:22:54.402Z,100.00
2022-10-24T23:25:30.172Z,100.00
2022-10-24T23:28:15.630Z,100.00
2022-10-24T23:30:42.221Z,100.00
2022-10-24T23:33:17.883Z,100.00
2022-10-24T23:35:44.589Z,100.00
2022-10-24T23:38:11.253Z,100.00
2022-10-24T23:40:38.408Z,100.00
2022-10-24T23:43:05.252Z,100.00
2022-10-24T23:45:38.998Z,100.00
2022-10-24T23:48:37.583Z,100.00
2022-10-24T23:51:17.817Z,100.00
2022-10-24T23:53:52.099Z,100.00
2022-10-24T23:56:24.402Z,100.00
2022-10-24T23:58:51.785Z,100.00
